Weather at Dolneni Airport

Public forecast

Using degrees Celsius for public forecast. Weather courtesy of forecast.io.

Closest aviation weather report (METAR) to Dolneni Airport

Report is more than 2 hours old.

Closest report is Ohrid St. Paul the Apostle Airport, 33.3 nm (61.7 km) WSW. Retrieved 2022/01/19 19:30 UTC (4 hours ago):

LWOH 191930Z 00000KT CAVOK M04/M08 Q1027

Closest aviation forecast (TAF) to Dolneni Airport

Closest forecast is Ohrid St. Paul the Apostle Airport, 33.3 nm (61.7 km) WSW. Retrieved 2022/01/19 21:27 UTC (2 hours ago):

TAF TAF LWOH 192025Z 1921/2021 VRB02KT CAVOK TEMPO 2004/2009 SCT020 BECMG 2016/2018 18008KT SCT040 BKN080